Time;durP1;ratioP1;P1;durP2;ratioP2;P2;SDS_P1;SDS_P2;PMS_P1;PMS_P2;Temp;Humidity;BMP_temperature;BMP_pressure;BME280_temperature;BME280_humidity;BME280_pressure;Samples;Min_cycle;Max_cycle;Signal;HPM_P1;HPM_P2
2021/09/10 00:00:27;;;;;;;2.55;0.60;;;;;;;;;;5045281;28;20021;-68
2021/09/10 00:02:54;;;;;;;1.05;0.57;;;;;;;;;;5047702;28;20029;-69
2021/09/10 00:05:21;;;;;;;2.08;0.73;;;;;;;;;;5055631;28;20025;-69
2021/09/10 00:07:48;;;;;;;1.67;0.52;;;;;;;;;;5052716;28;20100;-69
2021/09/10 00:10:15;;;;;;;1.20;0.47;;;;;;;;;;5040287;28;20029;-68
2021/09/10 00:12:42;;;;;;;2.20;0.60;;;;;;;;;;5045241;28;20033;-69
2021/09/10 00:15:09;;;;;;;1.58;0.50;;;;;;;;;;5042136;28;20018;-68
2021/09/10 00:17:37;;;;;;;3.55;0.60;;;;;;;;;;5038382;28;20385;-68
2021/09/10 00:20:04;;;;;;;2.55;0.73;;;;;;;;;;5044008;28;20024;-68
2021/09/10 00:22:31;;;;;;;1.42;0.63;;;;;;;;;;5040629;28;20048;-68
2021/09/10 00:24:59;;;;;;;2.15;0.60;;;;;;;;;;5037531;28;20013;-68
2021/09/10 00:27:26;;;;;;;0.90;0.60;;;;;;;;;;5043403;28;20032;-68
2021/09/10 00:29:54;;;;;;;1.88;0.50;;;;;;;;;;5036336;28;20413;-68
2021/09/10 00:32:21;;;;;;;4.40;0.60;;;;;;;;;;5042224;28;20111;-68
2021/09/10 00:34:48;;;;;;;2.30;0.70;;;;;;;;;;5046575;28;20021;-68
2021/09/10 00:37:16;;;;;;;2.88;0.60;;;;;;;;;;5047845;28;20381;-68
2021/09/10 00:39:43;;;;;;;2.65;0.75;;;;;;;;;;5037277;28;20079;-69
2021/09/10 00:42:10;;;;;;;2.47;1.00;;;;;;;;;;5042180;28;20468;-69
2021/09/10 00:44:37;;;;;;;1.67;0.60;;;;;;;;;;5038577;28;20032;-70
2021/09/10 00:47:04;;;;;;;2.17;0.50;;;;;;;;;;5035339;28;20029;-70
2021/09/10 00:49:32;;;;;;;1.80;0.52;;;;;;;;;;5044164;28;20057;-69
2021/09/10 00:51:59;;;;;;;1.73;0.50;;;;;;;;;;5038168;28;20057;-69
2021/09/10 00:54:26;;;;;;;2.95;0.73;;;;;;;;;;5048581;28;20033;-69
2021/09/10 00:56:53;;;;;;;4.32;0.60;;;;;;;;;;5044899;28;20023;-69
2021/09/10 00:59:20;;;;;;;4.70;0.73;;;;;;;;;;5039351;28;20487;-69
2021/09/10 01:01:48;;;;;;;2.75;0.70;;;;;;;;;;5047249;28;20465;-68
2021/09/10 01:04:15;;;;;;;15.77;2.40;;;;;;;;;;5042138;28;20021;-68
2021/09/10 01:06:43;;;;;;;18.20;2.40;;;;;;;;;;5040959;28;20547;-70
2021/09/10 01:09:10;;;;;;;28.52;3.35;;;;;;;;;;5043057;28;20372;-68
2021/09/10 01:11:37;;;;;;;12.05;2.40;;;;;;;;;;5046936;28;20078;-67
2021/09/10 01:14:05;;;;;;;12.75;3.08;;;;;;;;;;5022635;28;20049;-68
2021/09/10 01:16:32;;;;;;;13.15;3.47;;;;;;;;;;5034714;28;20029;-69
2021/09/10 01:18:59;;;;;;;16.38;3.03;;;;;;;;;;5043047;28;20601;-69
2021/09/10 01:21:26;;;;;;;12.70;2.88;;;;;;;;;;5037988;28;20112;-70
2021/09/10 01:23:54;;;;;;;18.25;4.18;;;;;;;;;;5042010;28;20024;-68
2021/09/10 01:26:21;;;;;;;17.15;3.22;;;;;;;;;;5039459;28;20036;-68
2021/09/10 01:28:49;;;;;;;12.18;2.83;;;;;;;;;;5042035;28;20029;-67
2021/09/10 01:31:16;;;;;;;13.60;2.97;;;;;;;;;;5040792;28;20040;-68
2021/09/10 01:33:43;;;;;;;17.45;2.88;;;;;;;;;;5039603;28;20100;-67
2021/09/10 01:36:14;;;;;;;19.42;3.72;;;;;;;;;;5044217;28;20104;-69
2021/09/10 01:38:41;;;;;;;15.10;2.88;;;;;;;;;;5051993;28;20140;-69
2021/09/10 01:41:08;;;;;;;25.45;4.93;;;;;;;;;;5049662;28;20028;-69
2021/09/10 01:43:36;;;;;;;19.60;4.63;;;;;;;;;;5038957;28;20390;-68
2021/09/10 01:46:03;;;;;;;17.52;4.30;;;;;;;;;;5037322;28;20045;-68
2021/09/10 01:48:30;;;;;;;21.90;4.07;;;;;;;;;;5036006;28;20025;-68
2021/09/10 01:50:57;;;;;;;20.88;3.88;;;;;;;;;;5042568;28;20033;-67
2021/09/10 01:53:31;;;;;;;23.02;4.90;;;;;;;;;;5033106;28;20079;-68
2021/09/10 01:55:58;;;;;;;18.50;4.38;;;;;;;;;;5036236;28;20520;-67
2021/09/10 01:58:25;;;;;;;18.17;3.00;;;;;;;;;;5039254;28;20032;-67
2021/09/10 02:00:52;;;;;;;23.80;4.65;;;;;;;;;;5040378;28;20032;-69
2021/09/10 02:03:19;;;;;;;18.98;3.80;;;;;;;;;;5038250;28;20029;-68
2021/09/10 02:05:46;;;;;;;16.08;3.83;;;;;;;;;;5033916;28;20026;-70
2021/09/10 02:08:13;;;;;;;20.20;4.43;;;;;;;;;;5038184;28;20034;-68
2021/09/10 02:10:40;;;;;;;26.13;4.75;;;;;;;;;;5038095;28;20060;-69
2021/09/10 02:13:08;;;;;;;18.02;3.97;;;;;;;;;;5039939;28;20539;-69
2021/09/10 02:15:35;;;;;;;23.00;4.95;;;;;;;;;;5033856;28;20051;-70
2021/09/10 02:18:02;;;;;;;23.33;4.22;;;;;;;;;;5033204;28;20037;-70
2021/09/10 02:20:29;;;;;;;20.33;3.97;;;;;;;;;;5032272;28;20137;-69
2021/09/10 02:22:56;;;;;;;22.50;3.95;;;;;;;;;;5038121;28;20030;-69
2021/09/10 02:25:23;;;;;;;24.30;4.03;;;;;;;;;;5034081;28;20014;-69
2021/09/10 02:27:50;;;;;;;24.70;4.45;;;;;;;;;;5034351;28;20079;-69
2021/09/10 02:30:17;;;;;;;20.63;4.13;;;;;;;;;;5038384;28;20414;-70
2021/09/10 02:32:44;;;;;;;18.65;4.13;;;;;;;;;;5038917;28;20025;-70
2021/09/10 02:35:12;;;;;;;25.35;5.30;;;;;;;;;;5037622;28;20032;-70
2021/09/10 02:37:39;;;;;;;22.10;4.07;;;;;;;;;;5034188;28;20735;-67
2021/09/10 02:40:06;;;;;;;24.15;3.88;;;;;;;;;;5041456;28;20104;-68
2021/09/10 02:42:33;;;;;;;25.30;3.80;;;;;;;;;;5036080;28;20493;-68
2021/09/10 02:45:02;;;;;;;16.25;3.58;;;;;;;;;;5035931;28;20029;-67
2021/09/10 02:47:30;;;;;;;17.15;3.53;;;;;;;;;;5037535;28;20486;-68
2021/09/10 02:49:57;;;;;;;18.65;4.07;;;;;;;;;;5042935;28;20025;-68
2021/09/10 02:52:25;;;;;;;20.95;4.15;;;;;;;;;;5037249;28;20029;-69
2021/09/10 02:54:52;;;;;;;21.88;4.47;;;;;;;;;;5045286;28;20082;-68
2021/09/10 02:57:19;;;;;;;25.42;5.75;;;;;;;;;;5041801;28;20509;-68
2021/09/10 02:59:46;;;;;;;21.55;5.35;;;;;;;;;;5040162;28;20021;-68
2021/09/10 03:02:13;;;;;;;19.65;4.07;;;;;;;;;;5038813;28;20052;-68
2021/09/10 03:04:44;;;;;;;24.20;4.95;;;;;;;;;;5032795;28;20022;-68
2021/09/10 03:07:12;;;;;;;21.30;4.28;;;;;;;;;;5040225;28;20124;-68
2021/09/10 03:09:39;;;;;;;17.02;4.90;;;;;;;;;;5036211;28;20105;-70
2021/09/10 03:12:06;;;;;;;18.83;4.47;;;;;;;;;;5032648;28;20503;-70
2021/09/10 03:14:34;;;;;;;28.45;4.82;;;;;;;;;;5039574;28;20049;-68
2021/09/10 03:17:01;;;;;;;17.83;3.83;;;;;;;;;;5034149;28;20435;-69
2021/09/10 03:19:28;;;;;;;28.38;5.30;;;;;;;;;;5041859;28;20048;-70
2021/09/10 03:21:55;;;;;;;21.42;4.32;;;;;;;;;;5035577;28;20554;-69
2021/09/10 03:24:22;;;;;;;20.95;4.55;;;;;;;;;;5032691;28;20070;-69
2021/09/10 03:26:50;;;;;;;33.60;4.88;;;;;;;;;;5034667;28;20078;-69
2021/09/10 03:29:17;;;;;;;20.40;3.65;;;;;;;;;;5030600;28;20111;-69
2021/09/10 03:31:44;;;;;;;21.45;3.38;;;;;;;;;;5039131;28;20371;-69
2021/09/10 03:34:11;;;;;;;18.98;2.97;;;;;;;;;;5034316;28;20079;-70
2021/09/10 03:36:38;;;;;;;21.42;3.88;;;;;;;;;;5042356;28;20018;-70
2021/09/10 03:39:05;;;;;;;23.15;4.72;;;;;;;;;;5045738;28;20378;-70
2021/09/10 03:41:32;;;;;;;23.20;4.38;;;;;;;;;;5041625;28;20506;-69
2021/09/10 03:44:00;;;;;;;25.02;5.18;;;;;;;;;;5046075;28;20040;-69
2021/09/10 03:46:27;;;;;;;21.10;4.40;;;;;;;;;;5040740;28;20478;-69
2021/09/10 03:48:54;;;;;;;22.63;4.10;;;;;;;;;;5042151;28;20029;-69
2021/09/10 03:51:21;;;;;;;25.52;4.47;;;;;;;;;;5047094;28;20029;-69
2021/09/10 03:53:48;;;;;;;21.75;4.13;;;;;;;;;;5050759;28;20537;-69
2021/09/10 03:56:15;;;;;;;18.27;3.97;;;;;;;;;;5034825;28;20065;-68
2021/09/10 03:58:44;;;;;;;18.98;4.63;;;;;;;;;;5035729;28;20025;-69
2021/09/10 04:01:11;;;;;;;23.23;3.40;;;;;;;;;;5037969;28;20076;-68
2021/09/10 04:03:38;;;;;;;23.95;5.40;;;;;;;;;;5043700;28;20113;-69
2021/09/10 04:06:06;;;;;;;25.63;5.13;;;;;;;;;;5036543;28;20029;-68
2021/09/10 04:08:33;;;;;;;23.80;5.45;;;;;;;;;;5051347;28;20025;-70
2021/09/10 04:11:00;;;;;;;26.20;4.07;;;;;;;;;;5035127;28;20442;-69
2021/09/10 04:13:27;;;;;;;20.65;4.45;;;;;;;;;;5036374;28;20040;-69
2021/09/10 04:15:54;;;;;;;21.83;3.92;;;;;;;;;;5037775;28;20086;-69
2021/09/10 04:18:21;;;;;;;22.70;4.72;;;;;;;;;;5053843;28;20055;-67
2021/09/10 04:20:48;;;;;;;26.25;6.95;;;;;;;;;;5039436;28;20382;-69
2021/09/10 04:23:15;;;;;;;21.98;4.47;;;;;;;;;;5035394;28;20029;-68
2021/09/10 04:25:42;;;;;;;20.27;4.10;;;;;;;;;;5034051;28;20512;-69
2021/09/10 04:28:12;;;;;;;23.75;4.60;;;;;;;;;;5036206;28;20359;-69
2021/09/10 04:30:39;;;;;;;24.33;4.43;;;;;;;;;;5042160;28;20028;-67
2021/09/10 04:33:06;;;;;;;25.95;4.15;;;;;;;;;;5038002;28;20044;-68
2021/09/10 04:35:33;;;;;;;28.13;4.20;;;;;;;;;;5034197;28;20021;-69
2021/09/10 04:38:00;;;;;;;29.77;5.20;;;;;;;;;;5036579;28;20049;-68
2021/09/10 04:40:28;;;;;;;25.98;5.25;;;;;;;;;;5034485;28;20386;-70
2021/09/10 04:42:55;;;;;;;30.58;5.70;;;;;;;;;;5033751;28;20037;-70
2021/09/10 04:45:22;;;;;;;27.02;5.60;;;;;;;;;;5036880;28;20042;-69
2021/09/10 04:47:49;;;;;;;22.35;5.57;;;;;;;;;;5034799;28;20026;-70
2021/09/10 04:50:17;;;;;;;22.80;5.35;;;;;;;;;;5042241;28;20021;-67
2021/09/10 04:52:44;;;;;;;22.45;4.00;;;;;;;;;;5038916;28;20030;-69
2021/09/10 04:55:11;;;;;;;25.33;5.53;;;;;;;;;;5041329;28;20021;-69
2021/09/10 04:57:39;;;;;;;40.35;7.30;;;;;;;;;;5043583;28;20022;-68
2021/09/10 05:00:06;;;;;;;30.73;5.50;;;;;;;;;;5033698;28;20096;-68
2021/09/10 05:02:34;;;;;;;25.42;4.72;;;;;;;;;;5034878;28;20071;-69
2021/09/10 05:05:01;;;;;;;23.30;4.72;;;;;;;;;;5053024;28;20485;-70
2021/09/10 05:07:28;;;;;;;27.10;5.63;;;;;;;;;;5051382;28;20037;-68
2021/09/10 05:09:55;;;;;;;22.65;4.60;;;;;;;;;;5039847;28;20021;-68
2021/09/10 05:12:22;;;;;;;23.17;4.85;;;;;;;;;;5043184;28;20040;-70
2021/09/10 05:14:52;;;;;;;22.92;5.75;;;;;;;;;;5041192;28;20055;-69
2021/09/10 05:17:20;;;;;;;27.30;5.30;;;;;;;;;;5033839;28;20057;-70
2021/09/10 05:19:47;;;;;;;25.40;5.32;;;;;;;;;;5033767;28;20116;-70
2021/09/10 05:22:14;;;;;;;23.85;4.70;;;;;;;;;;5044552;28;20025;-70
2021/09/10 05:24:41;;;;;;;23.88;4.95;;;;;;;;;;5040066;28;20094;-71
2021/09/10 05:27:09;;;;;;;26.20;5.43;;;;;;;;;;5037929;28;20377;-70
2021/09/10 05:29:36;;;;;;;23.52;4.63;;;;;;;;;;5034381;28;20450;-69
2021/09/10 05:32:03;;;;;;;22.92;4.50;;;;;;;;;;5039875;28;20048;-71
2021/09/10 05:34:30;;;;;;;26.88;4.82;;;;;;;;;;5034389;28;20029;-69
2021/09/10 05:36:57;;;;;;;28.10;4.97;;;;;;;;;;5040452;28;20033;-69
2021/09/10 05:39:24;;;;;;;27.02;5.95;;;;;;;;;;5044434;28;20029;-68
2021/09/10 05:41:52;;;;;;;25.02;5.68;;;;;;;;;;5049013;28;20095;-70
2021/09/10 05:44:19;;;;;;;23.35;4.22;;;;;;;;;;5035112;28;20037;-68
2021/09/10 05:46:46;;;;;;;26.35;5.35;;;;;;;;;;5037305;28;20028;-68
2021/09/10 05:49:13;;;;;;;26.65;4.55;;;;;;;;;;5044288;28;20032;-69
2021/09/10 05:51:40;;;;;;;19.75;4.30;;;;;;;;;;5039964;28;20860;-69
2021/09/10 05:54:07;;;;;;;27.92;4.20;;;;;;;;;;5039944;28;20029;-68
2021/09/10 05:56:35;;;;;;;21.17;5.40;;;;;;;;;;5037492;28;20458;-69
2021/09/10 05:59:02;;;;;;;27.60;5.32;;;;;;;;;;5032660;28;20057;-68
2021/09/10 06:01:29;;;;;;;31.23;4.95;;;;;;;;;;5032603;28;20025;-69
2021/09/10 06:03:56;;;;;;;26.40;6.07;;;;;;;;;;5038316;28;20037;-69
2021/09/10 06:06:23;;;;;;;21.27;4.80;;;;;;;;;;5037125;28;20072;-69
2021/09/10 06:08:50;;;;;;;28.65;4.72;;;;;;;;;;5034574;28;20021;-69
2021/09/10 06:11:17;;;;;;;21.63;4.43;;;;;;;;;;5038171;28;20030;-69
2021/09/10 06:13:44;;;;;;;32.63;4.75;;;;;;;;;;5032729;28;20024;-69
2021/09/10 06:16:12;;;;;;;29.48;4.70;;;;;;;;;;5037234;28;20113;-68
2021/09/10 06:18:39;;;;;;;22.80;4.28;;;;;;;;;;5034687;28;20040;-69
2021/09/10 06:21:06;;;;;;;23.00;4.15;;;;;;;;;;5032877;28;20025;-69
2021/09/10 06:23:33;;;;;;;23.50;4.25;;;;;;;;;;5037935;28;20051;-69
2021/09/10 06:26:00;;;;;;;26.02;4.72;;;;;;;;;;5030744;28;20118;-69
2021/09/10 06:28:27;;;;;;;26.42;5.20;;;;;;;;;;5034845;28;20018;-69
2021/09/10 06:30:55;;;;;;;28.27;4.47;;;;;;;;;;5035743;28;20082;-69
2021/09/10 06:33:22;;;;;;;19.38;4.45;;;;;;;;;;5032944;28;20033;-69
2021/09/10 06:35:49;;;;;;;25.42;5.45;;;;;;;;;;5030959;28;20513;-69
2021/09/10 06:38:17;;;;;;;21.98;4.50;;;;;;;;;;5032864;28;20099;-70
2021/09/10 06:40:44;;;;;;;28.83;5.65;;;;;;;;;;5032003;28;20024;-69
2021/09/10 06:43:11;;;;;;;29.02;5.00;;;;;;;;;;5035332;28;20049;-69
2021/09/10 06:45:38;;;;;;;23.02;5.38;;;;;;;;;;5032555;28;20025;-68
2021/09/10 06:48:05;;;;;;;27.33;5.63;;;;;;;;;;5043532;28;20052;-69
2021/09/10 06:50:33;;;;;;;37.58;7.13;;;;;;;;;;5040178;28;20024;-68
2021/09/10 06:53:00;;;;;;;35.75;5.55;;;;;;;;;;5032669;28;20065;-68
2021/09/10 06:55:27;;;;;;;25.75;4.75;;;;;;;;;;5031857;28;20027;-67
2021/09/10 06:57:54;;;;;;;27.65;4.68;;;;;;;;;;5033093;28;20059;-69
2021/09/10 07:00:21;;;;;;;26.08;4.18;;;;;;;;;;5031826;28;20018;-69
2021/09/10 07:02:48;;;;;;;21.48;4.07;;;;;;;;;;5032358;28;20037;-68
2021/09/10 07:05:16;;;;;;;27.80;6.75;;;;;;;;;;5032633;28;20085;-69
2021/09/10 07:07:43;;;;;;;24.42;5.68;;;;;;;;;;5032870;28;20022;-69
2021/09/10 07:10:10;;;;;;;20.27;4.45;;;;;;;;;;5036980;28;20028;-69
2021/09/10 07:12:37;;;;;;;26.38;4.68;;;;;;;;;;5033269;28;20029;-69
2021/09/10 07:15:05;;;;;;;23.67;4.80;;;;;;;;;;5032642;28;20047;-67
2021/09/10 07:17:32;;;;;;;24.90;4.32;;;;;;;;;;5032523;28;20101;-70
2021/09/10 07:20:03;;;;;;;21.42;4.07;;;;;;;;;;5032607;28;20033;-69
2021/09/10 07:22:30;;;;;;;27.27;5.40;;;;;;;;;;5032326;28;20083;-68
2021/09/10 07:24:57;;;;;;;37.35;4.85;;;;;;;;;;5032486;28;20476;-68
2021/09/10 07:27:25;;;;;;;30.77;4.18;;;;;;;;;;5034710;28;20022;-70
2021/09/10 07:29:52;;;;;;;29.38;5.20;;;;;;;;;;5046455;28;20028;-71
2021/09/10 07:32:19;;;;;;;28.90;4.53;;;;;;;;;;5037681;28;20033;-69
2021/09/10 07:34:46;;;;;;;24.40;5.90;;;;;;;;;;5035084;28;20055;-70
2021/09/10 07:37:13;;;;;;;25.27;4.82;;;;;;;;;;5035167;28;20115;-70
2021/09/10 07:39:40;;;;;;;25.50;4.63;;;;;;;;;;5032091;28;20115;-68
2021/09/10 07:42:07;;;;;;;30.52;5.57;;;;;;;;;;5031967;28;20036;-68
2021/09/10 07:44:34;;;;;;;27.95;4.18;;;;;;;;;;5032381;28;20048;-68
2021/09/10 07:47:02;;;;;;;33.17;5.18;;;;;;;;;;5041779;28;20036;-68
2021/09/10 07:49:29;;;;;;;21.27;4.53;;;;;;;;;;5052000;28;20028;-69
2021/09/10 07:51:56;;;;;;;25.40;5.63;;;;;;;;;;5040952;28;20550;-68
2021/09/10 07:54:23;;;;;;;24.13;4.75;;;;;;;;;;5032200;28;20021;-69
2021/09/10 07:56:50;;;;;;;26.38;4.53;;;;;;;;;;5032379;28;20021;-69
2021/09/10 07:59:17;;;;;;;29.38;5.18;;;;;;;;;;5032374;28;20075;-69
2021/09/10 08:01:44;;;;;;;35.13;6.03;;;;;;;;;;5031967;28;20075;-68
2021/09/10 08:04:11;;;;;;;23.25;6.30;;;;;;;;;;5034916;28;20108;-68
2021/09/10 08:06:39;;;;;;;22.70;5.50;;;;;;;;;;5034196;28;20382;-68
2021/09/10 08:09:06;;;;;;;21.92;5.15;;;;;;;;;;5032472;28;20030;-68
2021/09/10 08:11:33;;;;;;;27.58;6.28;;;;;;;;;;5037316;28;20393;-69
2021/09/10 08:14:03;;;;;;;33.55;6.50;;;;;;;;;;5049760;28;20029;-69
2021/09/10 08:16:30;;;;;;;22.63;6.03;;;;;;;;;;5031241;28;20409;-69
2021/09/10 08:18:57;;;;;;;30.25;5.55;;;;;;;;;;5034405;28;20489;-70
2021/09/10 08:21:24;;;;;;;24.75;5.82;;;;;;;;;;5038532;28;20072;-69
2021/09/10 08:23:51;;;;;;;25.77;4.68;;;;;;;;;;5050470;28;20631;-70
2021/09/10 08:26:18;;;;;;;23.63;5.68;;;;;;;;;;5045804;28;20028;-69
2021/09/10 08:28:46;;;;;;;25.58;4.93;;;;;;;;;;5039195;28;20018;-69
2021/09/10 08:31:14;;;;;;;27.33;5.05;;;;;;;;;;5038108;28;20108;-70
2021/09/10 08:33:41;;;;;;;32.13;5.25;;;;;;;;;;5041156;28;20033;-69
2021/09/10 08:36:08;;;;;;;19.95;5.18;;;;;;;;;;5039022;28;20025;-69
2021/09/10 08:38:35;;;;;;;25.58;4.35;;;;;;;;;;5044788;28;20429;-68
2021/09/10 08:41:03;;;;;;;29.55;4.95;;;;;;;;;;5048538;28;20124;-68
2021/09/10 08:43:31;;;;;;;28.45;5.57;;;;;;;;;;5043700;28;20409;-68
2021/09/10 08:45:59;;;;;;;27.95;6.22;;;;;;;;;;5045987;28;20087;-68
2021/09/10 08:48:30;;;;;;;23.13;4.00;;;;;;;;;;5050687;28;20029;-70
2021/09/10 08:50:57;;;;;;;26.52;5.60;;;;;;;;;;5057002;28;20409;-69
2021/09/10 08:53:24;;;;;;;34.83;6.13;;;;;;;;;;5047869;28;20044;-70
2021/09/10 08:55:51;;;;;;;26.25;5.30;;;;;;;;;;5055846;28;20033;-68
2021/09/10 08:58:18;;;;;;;26.38;5.82;;;;;;;;;;5047447;28;20029;-69
2021/09/10 09:00:46;;;;;;;28.90;5.00;;;;;;;;;;5052917;28;20111;-69
2021/09/10 09:03:13;;;;;;;31.13;6.38;;;;;;;;;;5035016;28;20025;-70
2021/09/10 09:05:41;;;;;;;30.40;5.30;;;;;;;;;;5035003;28;20493;-70
2021/09/10 09:08:08;;;;;;;31.73;6.13;;;;;;;;;;5035611;28;20033;-69
2021/09/10 09:10:53;;;;;;;27.73;4.25;;;;;;;;;;5035329;28;20379;-69
2021/09/10 09:13:21;;;;;;;26.70;5.50;;;;;;;;;;5034707;28;20060;-69
2021/09/10 09:15:48;;;;;;;24.27;6.38;;;;;;;;;;5034985;28;20033;-70
2021/09/10 09:18:15;;;;;;;32.88;6.55;;;;;;;;;;5046336;28;20024;-69
2021/09/10 09:20:47;;;;;;;27.00;6.05;;;;;;;;;;5039757;28;20021;-70
2021/09/10 09:23:15;;;;;;;27.67;5.05;;;;;;;;;;5040728;28;20032;-71
2021/09/10 09:25:42;;;;;;;21.95;5.30;;;;;;;;;;5038453;28;20028;-71
2021/09/10 09:28:17;;;;;;;22.33;6.28;;;;;;;;;;5049626;28;20550;-71
2021/09/10 09:30:45;;;;;;;28.35;5.00;;;;;;;;;;5039179;28;20027;-72
2021/09/10 09:33:18;;;;;;;29.42;6.18;;;;;;;;;;5037082;28;20036;-71
2021/09/10 09:35:46;;;;;;;22.70;4.25;;;;;;;;;;5034120;28;20061;-71
2021/09/10 09:38:21;;;;;;;29.63;5.28;;;;;;;;;;5036543;28;20077;-70
2021/09/10 09:40:52;;;;;;;23.77;5.13;;;;;;;;;;5034005;28;20022;-70
2021/09/10 09:43:21;;;;;;;27.33;5.20;;;;;;;;;;5036979;28;20394;-69
2021/09/10 09:45:49;;;;;;;26.55;6.13;;;;;;;;;;5032678;28;20049;-70
2021/09/10 09:48:17;;;;;;;25.13;5.40;;;;;;;;;;5040085;28;20474;-69
2021/09/10 09:50:44;;;;;;;22.63;4.93;;;;;;;;;;5032898;28;20052;-68
2021/09/10 09:53:14;;;;;;;33.58;6.88;;;;;;;;;;5035132;28;20032;-69
2021/09/10 09:55:43;;;;;;;27.98;6.20;;;;;;;;;;5041631;28;20085;-70
2021/09/10 09:58:10;;;;;;;22.50;4.88;;;;;;;;;;5038063;28;20029;-71
2021/09/10 10:00:39;;;;;;;22.90;5.45;;;;;;;;;;5044352;28;20374;-69
2021/09/10 10:03:07;;;;;;;33.00;7.35;;;;;;;;;;5048045;28;20128;-70
2021/09/10 10:05:41;;;;;;;28.63;7.38;;;;;;;;;;5034659;28;20025;-70
2021/09/10 10:08:11;;;;;;;38.63;7.60;;;;;;;;;;5034538;28;20022;-70
2021/09/10 10:10:47;;;;;;;54.55;21.20;;;;;;;;;;5033670;28;20025;-71
2021/09/10 10:13:20;;;;;;;44.83;14.35;;;;;;;;;;5032922;28;20112;-71
2021/09/10 10:15:48;;;;;;;35.08;12.18;;;;;;;;;;5043650;28;20152;-71
2021/09/10 10:18:35;;;;;;;35.28;9.45;;;;;;;;;;5042547;28;20013;-71
2021/09/10 10:21:03;;;;;;;29.92;8.38;;;;;;;;;;5046068;28;20531;-70
2021/09/10 10:23:45;;;;;;;26.77;6.30;;;;;;;;;;5035648;28;20025;-71
2021/09/10 10:26:20;;;;;;;25.50;5.95;;;;;;;;;;5031717;28;20036;-70
2021/09/10 10:28:47;;;;;;;25.40;6.50;;;;;;;;;;5031151;28;20086;-71
2021/09/10 10:31:15;;;;;;;28.80;4.93;;;;;;;;;;5046603;28;20082;-71
2021/09/10 10:33:49;;;;;;;32.15;6.43;;;;;;;;;;5045343;28;20029;-70
2021/09/10 10:36:30;;;;;;;33.83;5.97;;;;;;;;;;5032872;28;20048;-70
2021/09/10 10:39:12;;;;;;;30.08;6.45;;;;;;;;;;5032496;28;20049;-70
2021/09/10 10:41:50;;;;;;;29.17;8.23;;;;;;;;;;5042376;28;20021;-70
2021/09/10 10:44:43;;;;;;;38.05;7.97;;;;;;;;;;5052860;28;20104;-68
2021/09/10 10:47:14;;;;;;;24.25;6.35;;;;;;;;;;5033643;28;20072;-69
2021/09/10 10:49:45;;;;;;;24.85;6.88;;;;;;;;;;5035436;28;20466;-69
2021/09/10 10:52:25;;;;;;;25.77;6.40;;;;;;;;;;5039670;28;20029;-70
2021/09/10 10:55:10;;;;;;;32.75;7.65;;;;;;;;;;5033873;28;20057;-69
2021/09/10 10:57:37;;;;;;;30.85;7.25;;;;;;;;;;5043795;28;20075;-69
2021/09/10 11:00:24;;;;;;;28.38;5.88;;;;;;;;;;5052119;28;20020;-70
2021/09/10 11:02:51;;;;;;;25.75;5.88;;;;;;;;;;5034491;28;20497;-70
2021/09/10 11:05:25;;;;;;;28.73;6.40;;;;;;;;;;5033735;28;20307;-69
2021/09/10 11:07:52;;;;;;;29.75;6.22;;;;;;;;;;5042633;28;20120;-69
2021/09/10 11:10:19;;;;;;;33.67;6.40;;;;;;;;;;5036958;28;20024;-68
2021/09/10 11:12:54;;;;;;;24.17;5.60;;;;;;;;;;5040221;28;20388;-70
2021/09/10 11:15:24;;;;;;;29.27;6.28;;;;;;;;;;5039206;28;20032;-69
2021/09/10 11:17:58;;;;;;;30.17;6.72;;;;;;;;;;5034984;28;20025;-68
2021/09/10 11:20:46;;;;;;;27.55;7.20;;;;;;;;;;5035998;28;20116;-69
2021/09/10 11:23:18;;;;;;;27.85;6.25;;;;;;;;;;5036146;28;20021;-69
2021/09/10 11:25:46;;;;;;;33.28;6.88;;;;;;;;;;5043750;28;20020;-71
2021/09/10 11:28:14;;;;;;;35.92;7.80;;;;;;;;;;5037908;28;20045;-71
2021/09/10 11:30:41;;;;;;;29.08;6.32;;;;;;;;;;5037573;28;20025;-71
2021/09/10 11:33:09;;;;;;;35.28;7.00;;;;;;;;;;5040363;28;20107;-71
2021/09/10 11:35:38;;;;;;;33.72;8.02;;;;;;;;;;5033579;28;20017;-71
2021/09/10 11:38:05;;;;;;;31.25;7.28;;;;;;;;;;5037559;28;20083;-71
2021/09/10 11:40:37;;;;;;;28.17;5.95;;;;;;;;;;5035242;28;20025;-71
2021/09/10 11:43:09;;;;;;;32.45;7.20;;;;;;;;;;5034812;28;20030;-72
2021/09/10 11:45:37;;;;;;;23.92;5.93;;;;;;;;;;5032848;28;20112;-71
2021/09/10 11:48:06;;;;;;;29.45;6.97;;;;;;;;;;5040911;28;20027;-71
2021/09/10 11:50:48;;;;;;;29.05;7.00;;;;;;;;;;5053642;28;20541;-71
2021/09/10 11:53:16;;;;;;;29.58;6.50;;;;;;;;;;5041133;28;20542;-71
2021/09/10 11:55:53;;;;;;;30.85;8.05;;;;;;;;;;5053295;28;20384;-72
2021/09/10 11:58:20;;;;;;;35.10;7.80;;;;;;;;;;5057440;28;20125;-71
2021/09/10 12:00:47;;;;;;;31.95;6.40;;;;;;;;;;5051272;28;20377;-71
2021/09/10 12:03:14;;;;;;;34.47;7.10;;;;;;;;;;5056004;28;20033;-71
2021/09/10 12:05:42;;;;;;;27.95;7.32;;;;;;;;;;5053247;28;20017;-70
2021/09/10 12:08:13;;;;;;;31.30;6.15;;;;;;;;;;5040807;28;20075;-70
2021/09/10 12:10:40;;;;;;;29.42;6.03;;;;;;;;;;5044347;28;20025;-68
2021/09/10 12:13:12;;;;;;;22.17;6.30;;;;;;;;;;5042302;28;20130;-70
2021/09/10 12:15:39;;;;;;;30.60;6.85;;;;;;;;;;5043139;28;20040;-71
2021/09/10 12:18:13;;;;;;;20.42;6.30;;;;;;;;;;5047258;28;20049;-71
2021/09/10 12:20:41;;;;;;;28.00;6.05;;;;;;;;;;5044243;28;20025;-71
2021/09/10 12:23:09;;;;;;;25.50;5.75;;;;;;;;;;5046170;28;21428;-71
2021/09/10 12:25:44;;;;;;;26.73;6.10;;;;;;;;;;5040693;28;20025;-70
2021/09/10 12:28:19;;;;;;;25.88;5.90;;;;;;;;;;5045251;28;20024;-71
2021/09/10 12:31:05;;;;;;;28.17;5.03;;;;;;;;;;5053203;28;20073;-70
2021/09/10 12:33:32;;;;;;;28.67;6.55;;;;;;;;;;5039418;28;20029;-71
2021/09/10 12:36:01;;;;;;;28.88;6.68;;;;;;;;;;5039122;28;20049;-70
2021/09/10 12:38:33;;;;;;;38.10;7.10;;;;;;;;;;5042841;28;20080;-71
2021/09/10 12:41:01;;;;;;;32.05;6.45;;;;;;;;;;5041405;28;20045;-71
2021/09/10 12:43:28;;;;;;;32.00;7.05;;;;;;;;;;5041556;28;20055;-72
2021/09/10 12:45:56;;;;;;;31.30;7.45;;;;;;;;;;5045720;28;20025;-71
2021/09/10 12:48:24;;;;;;;26.20;5.78;;;;;;;;;;5046464;28;20100;-71
2021/09/10 12:50:51;;;;;;;24.50;5.97;;;;;;;;;;5034664;28;20028;-69
2021/09/10 12:53:18;;;;;;;32.35;6.53;;;;;;;;;;5042120;28;20477;-70
2021/09/10 12:55:46;;;;;;;33.03;8.55;;;;;;;;;;5047543;28;20462;-71
2021/09/10 12:58:14;;;;;;;31.85;5.72;;;;;;;;;;5047624;28;20025;-70
2021/09/10 13:00:41;;;;;;;35.63;6.97;;;;;;;;;;5037546;28;20017;-70
2021/09/10 13:03:09;;;;;;;30.60;5.97;;;;;;;;;;5047660;28;20101;-71
2021/09/10 13:05:36;;;;;;;30.23;6.70;;;;;;;;;;5034713;28;20501;-71
2021/09/10 13:08:04;;;;;;;34.20;6.85;;;;;;;;;;5036112;28;20025;-71
2021/09/10 13:10:31;;;;;;;28.48;6.20;;;;;;;;;;5036077;28;20497;-72
2021/09/10 13:12:58;;;;;;;28.77;6.22;;;;;;;;;;5038843;28;20039;-71
2021/09/10 13:15:25;;;;;;;29.23;6.40;;;;;;;;;;5038722;28;20014;-72
2021/09/10 13:17:52;;;;;;;20.45;5.80;;;;;;;;;;5034002;28;20101;-71
2021/09/10 13:20:20;;;;;;;28.73;5.70;;;;;;;;;;5033872;28;20022;-71
2021/09/10 13:22:47;;;;;;;27.95;6.28;;;;;;;;;;5034888;28;20033;-71
2021/09/10 13:25:14;;;;;;;30.63;6.00;;;;;;;;;;5046274;28;20385;-71
2021/09/10 13:27:41;;;;;;;31.95;5.72;;;;;;;;;;5036072;28;20022;-71
2021/09/10 13:30:09;;;;;;;27.42;7.05;;;;;;;;;;5040881;28;20028;-72
2021/09/10 13:32:36;;;;;;;33.55;6.07;;;;;;;;;;5039121;28;20360;-71
2021/09/10 13:35:04;;;;;;;30.88;6.13;;;;;;;;;;5048997;28;20013;-70
2021/09/10 13:37:31;;;;;;;29.77;6.47;;;;;;;;;;5035413;28;20158;-70
2021/09/10 13:39:58;;;;;;;29.15;6.20;;;;;;;;;;5033245;28;20045;-71
2021/09/10 13:42:25;;;;;;;33.88;6.63;;;;;;;;;;5038054;28;20028;-71
2021/09/10 13:44:53;;;;;;;26.08;6.07;;;;;;;;;;5038407;28;20049;-70
2021/09/10 13:47:21;;;;;;;30.55;5.65;;;;;;;;;;5035902;28;20503;-71
2021/09/10 13:49:49;;;;;;;34.03;6.28;;;;;;;;;;5036441;28;20025;-71
2021/09/10 13:52:16;;;;;;;28.15;5.65;;;;;;;;;;5033470;28;20462;-71
2021/09/10 13:54:43;;;;;;;26.85;5.60;;;;;;;;;;5036821;28;20013;-71
2021/09/10 13:57:10;;;;;;;26.02;5.55;;;;;;;;;;5041652;28;20036;-71
2021/09/10 13:59:38;;;;;;;26.17;5.45;;;;;;;;;;5035456;28;20105;-71
2021/09/10 14:02:05;;;;;;;29.48;6.57;;;;;;;;;;5038222;28;20383;-71
2021/09/10 14:04:32;;;;;;;30.48;4.82;;;;;;;;;;5031738;28;20470;-71
2021/09/10 14:07:00;;;;;;;34.15;5.32;;;;;;;;;;5046284;28;20033;-70
2021/09/10 14:09:27;;;;;;;27.00;4.93;;;;;;;;;;5049936;28;20096;-70
2021/09/10 14:11:54;;;;;;;19.05;4.93;;;;;;;;;;5034943;28;20037;-71
2021/09/10 14:14:22;;;;;;;31.15;6.00;;;;;;;;;;5033077;28;20359;-70
2021/09/10 14:16:51;;;;;;;28.55;5.93;;;;;;;;;;5033195;28;20029;-71
2021/09/10 14:19:18;;;;;;;29.80;5.97;;;;;;;;;;5043102;28;20017;-71
2021/09/10 14:21:45;;;;;;;27.42;5.55;;;;;;;;;;5050146;28;20106;-71
2021/09/10 14:24:13;;;;;;;29.38;5.95;;;;;;;;;;5038576;28;20052;-71
2021/09/10 14:26:40;;;;;;;28.95;5.28;;;;;;;;;;5032349;28;20036;-71
2021/09/10 14:29:07;;;;;;;26.27;5.40;;;;;;;;;;5032480;28;20430;-70
2021/09/10 14:31:34;;;;;;;28.30;5.25;;;;;;;;;;5035919;28;20049;-70
2021/09/10 14:34:02;;;;;;;25.42;5.15;;;;;;;;;;5040954;28;20468;-69
2021/09/10 14:36:30;;;;;;;22.42;4.35;;;;;;;;;;5041408;28;20044;-70